sensor_id;sensor_type;location;lat;lon;timestamp;P1;durP1;ratioP1;P2;durP2;ratioP2
45848;SDS011;31567;54.600;9.842;2023-12-22T00:02:47;11.55;;;2.53;;
45848;SDS011;31567;54.600;9.842;2023-12-22T00:06:26;15.20;;;2.35;;
45848;SDS011;31567;54.600;9.842;2023-12-22T00:10:06;23.90;;;3.22;;
45848;SDS011;31567;54.600;9.842;2023-12-22T00:13:46;9.15;;;1.90;;
45848;SDS011;31567;54.600;9.842;2023-12-22T00:17:25;15.45;;;3.28;;
45848;SDS011;31567;54.600;9.842;2023-12-22T00:21:05;10.75;;;2.45;;
45848;SDS011;31567;54.600;9.842;2023-12-22T00:24:49;6.53;;;1.77;;
45848;SDS011;31567;54.600;9.842;2023-12-22T00:28:29;11.18;;;2.42;;
45848;SDS011;31567;54.600;9.842;2023-12-22T00:32:10;21.30;;;4.18;;
45848;SDS011;31567;54.600;9.842;2023-12-22T00:35:50;19.77;;;4.13;;
45848;SDS011;31567;54.600;9.842;2023-12-22T00:39:29;15.32;;;3.22;;
45848;SDS011;31567;54.600;9.842;2023-12-22T00:43:10;21.13;;;4.45;;
45848;SDS011;31567;54.600;9.842;2023-12-22T00:46:49;21.20;;;4.82;;
45848;SDS011;31567;54.600;9.842;2023-12-22T00:50:29;15.18;;;2.78;;
45848;SDS011;31567;54.600;9.842;2023-12-22T00:54:08;15.45;;;2.63;;
45848;SDS011;31567;54.600;9.842;2023-12-22T00:57:48;20.25;;;2.67;;
45848;SDS011;31567;54.600;9.842;2023-12-22T01:01:28;11.75;;;2.40;;
45848;SDS011;31567;54.600;9.842;2023-12-22T01:05:07;12.50;;;2.88;;
45848;SDS011;31567;54.600;9.842;2023-12-22T01:08:47;14.63;;;2.45;;
45848;SDS011;31567;54.600;9.842;2023-12-22T01:12:29;12.63;;;2.38;;
45848;SDS011;31567;54.600;9.842;2023-12-22T01:16:09;12.88;;;2.00;;
45848;SDS011;31567;54.600;9.842;2023-12-22T01:19:48;13.35;;;2.17;;
45848;SDS011;31567;54.600;9.842;2023-12-22T01:23:28;10.25;;;1.90;;
45848;SDS011;31567;54.600;9.842;2023-12-22T01:27:07;10.70;;;2.03;;
45848;SDS011;31567;54.600;9.842;2023-12-22T01:30:48;11.68;;;3.42;;
45848;SDS011;31567;54.600;9.842;2023-12-22T01:34:27;11.57;;;2.38;;
45848;SDS011;31567;54.600;9.842;2023-12-22T01:38:07;12.38;;;1.63;;
45848;SDS011;31567;54.600;9.842;2023-12-22T01:41:46;14.38;;;1.92;;
45848;SDS011;31567;54.600;9.842;2023-12-22T01:45:26;9.82;;;1.65;;
45848;SDS011;31567;54.600;9.842;2023-12-22T01:49:05;9.82;;;1.65;;
45848;SDS011;31567;54.600;9.842;2023-12-22T01:52:46;8.68;;;2.15;;
45848;SDS011;31567;54.600;9.842;2023-12-22T01:56:26;13.02;;;2.58;;
45848;SDS011;31567;54.600;9.842;2023-12-22T02:00:07;20.65;;;5.93;;
45848;SDS011;31567;54.600;9.842;2023-12-22T02:03:50;10.50;;;1.30;;
45848;SDS011;31567;54.600;9.842;2023-12-22T02:07:33;9.43;;;1.88;;
45848;SDS011;31567;54.600;9.842;2023-12-22T02:11:13;11.60;;;1.95;;
45848;SDS011;31567;54.600;9.842;2023-12-22T02:14:53;13.98;;;2.00;;
45848;SDS011;31567;54.600;9.842;2023-12-22T02:18:33;14.77;;;2.47;;
45848;SDS011;31567;54.600;9.842;2023-12-22T02:22:17;11.43;;;1.98;;
45848;SDS011;31567;54.600;9.842;2023-12-22T02:25:57;9.02;;;2.00;;
45848;SDS011;31567;54.600;9.842;2023-12-22T02:34:05;17.80;;;3.08;;
45848;SDS011;31567;54.600;9.842;2023-12-22T02:37:50;22.88;;;3.80;;
45848;SDS011;31567;54.600;9.842;2023-12-22T02:41:30;17.20;;;2.47;;
45848;SDS011;31567;54.600;9.842;2023-12-22T02:45:14;10.55;;;1.52;;
45848;SDS011;31567;54.600;9.842;2023-12-22T02:48:54;7.88;;;1.13;;
45848;SDS011;31567;54.600;9.842;2023-12-22T02:52:34;7.95;;;1.00;;
45848;SDS011;31567;54.600;9.842;2023-12-22T02:56:14;8.25;;;1.63;;
45848;SDS011;31567;54.600;9.842;2023-12-22T02:59:54;5.75;;;1.45;;
45848;SDS011;31567;54.600;9.842;2023-12-22T03:03:33;4.10;;;0.70;;
45848;SDS011;31567;54.600;9.842;2023-12-22T03:07:13;3.50;;;0.52;;
45848;SDS011;31567;54.600;9.842;2023-12-22T03:10:54;8.63;;;1.70;;
45848;SDS011;31567;54.600;9.842;2023-12-22T03:14:34;5.82;;;1.20;;
45848;SDS011;31567;54.600;9.842;2023-12-22T03:18:13;10.07;;;1.75;;
45848;SDS011;31567;54.600;9.842;2023-12-22T03:21:53;9.18;;;1.30;;
45848;SDS011;31567;54.600;9.842;2023-12-22T03:25:33;8.88;;;1.63;;
45848;SDS011;31567;54.600;9.842;2023-12-22T03:29:12;7.93;;;0.95;;
45848;SDS011;31567;54.600;9.842;2023-12-22T03:32:52;10.90;;;1.67;;
45848;SDS011;31567;54.600;9.842;2023-12-22T03:36:31;10.25;;;1.83;;
45848;SDS011;31567;54.600;9.842;2023-12-22T03:40:11;12.48;;;1.50;;
45848;SDS011;31567;54.600;9.842;2023-12-22T03:43:51;8.65;;;1.52;;
45848;SDS011;31567;54.600;9.842;2023-12-22T03:47:30;13.20;;;2.03;;
45848;SDS011;31567;54.600;9.842;2023-12-22T03:51:10;10.27;;;2.35;;
45848;SDS011;31567;54.600;9.842;2023-12-22T03:54:50;9.23;;;1.90;;
45848;SDS011;31567;54.600;9.842;2023-12-22T03:58:30;11.20;;;2.10;;
45848;SDS011;31567;54.600;9.842;2023-12-22T04:02:10;11.43;;;1.77;;
45848;SDS011;31567;54.600;9.842;2023-12-22T04:05:49;13.07;;;1.42;;
45848;SDS011;31567;54.600;9.842;2023-12-22T04:09:29;11.98;;;1.73;;
45848;SDS011;31567;54.600;9.842;2023-12-22T04:13:08;8.63;;;2.10;;
45848;SDS011;31567;54.600;9.842;2023-12-22T04:16:48;8.30;;;2.33;;
45848;SDS011;31567;54.600;9.842;2023-12-22T04:20:27;10.55;;;2.67;;
45848;SDS011;31567;54.600;9.842;2023-12-22T04:24:07;18.17;;;2.40;;
45848;SDS011;31567;54.600;9.842;2023-12-22T04:27:47;16.52;;;2.20;;
45848;SDS011;31567;54.600;9.842;2023-12-22T04:31:28;11.77;;;1.85;;
45848;SDS011;31567;54.600;9.842;2023-12-22T04:35:07;13.40;;;2.20;;
45848;SDS011;31567;54.600;9.842;2023-12-22T04:38:47;9.63;;;1.77;;
45848;SDS011;31567;54.600;9.842;2023-12-22T04:42:27;17.58;;;3.10;;
45848;SDS011;31567;54.600;9.842;2023-12-22T04:46:07;18.38;;;3.58;;
45848;SDS011;31567;54.600;9.842;2023-12-22T04:49:47;22.42;;;3.58;;
45848;SDS011;31567;54.600;9.842;2023-12-22T04:53:26;14.32;;;3.00;;
45848;SDS011;31567;54.600;9.842;2023-12-22T04:57:06;17.25;;;2.22;;
45848;SDS011;31567;54.600;9.842;2023-12-22T05:00:45;16.73;;;3.08;;
45848;SDS011;31567;54.600;9.842;2023-12-22T05:04:25;22.00;;;4.10;;
45848;SDS011;31567;54.600;9.842;2023-12-22T05:08:04;19.75;;;3.03;;
45848;SDS011;31567;54.600;9.842;2023-12-22T05:11:45;12.82;;;2.13;;
45848;SDS011;31567;54.600;9.842;2023-12-22T05:15:25;10.82;;;2.25;;
45848;SDS011;31567;54.600;9.842;2023-12-22T05:19:05;11.57;;;2.47;;
45848;SDS011;31567;54.600;9.842;2023-12-22T05:22:44;11.77;;;2.45;;
45848;SDS011;31567;54.600;9.842;2023-12-22T05:26:24;15.40;;;2.63;;
45848;SDS011;31567;54.600;9.842;2023-12-22T05:30:04;9.82;;;2.38;;
45848;SDS011;31567;54.600;9.842;2023-12-22T05:33:44;19.88;;;3.25;;
45848;SDS011;31567;54.600;9.842;2023-12-22T05:37:24;14.95;;;1.80;;
45848;SDS011;31567;54.600;9.842;2023-12-22T05:41:04;9.00;;;1.77;;
45848;SDS011;31567;54.600;9.842;2023-12-22T05:44:45;9.30;;;2.05;;
45848;SDS011;31567;54.600;9.842;2023-12-22T05:48:28;8.70;;;1.67;;
45848;SDS011;31567;54.600;9.842;2023-12-22T05:52:08;11.90;;;1.42;;
45848;SDS011;31567;54.600;9.842;2023-12-22T05:55:48;14.63;;;2.38;;
45848;SDS011;31567;54.600;9.842;2023-12-22T05:59:28;9.88;;;2.40;;
45848;SDS011;31567;54.600;9.842;2023-12-22T06:03:08;13.77;;;2.00;;
45848;SDS011;31567;54.600;9.842;2023-12-22T06:06:48;5.45;;;1.00;;
45848;SDS011;31567;54.600;9.842;2023-12-22T06:10:27;6.88;;;1.52;;
45848;SDS011;31567;54.600;9.842;2023-12-22T06:14:07;8.40;;;1.85;;
45848;SDS011;31567;54.600;9.842;2023-12-22T06:17:46;6.22;;;1.17;;
45848;SDS011;31567;54.600;9.842;2023-12-22T06:21:26;15.40;;;1.25;;
45848;SDS011;31567;54.600;9.842;2023-12-22T06:25:05;3.60;;;1.05;;
45848;SDS011;31567;54.600;9.842;2023-12-22T06:28:46;5.40;;;0.90;;
45848;SDS011;31567;54.600;9.842;2023-12-22T06:32:25;8.57;;;0.68;;
45848;SDS011;31567;54.600;9.842;2023-12-22T06:36:06;5.20;;;0.68;;
45848;SDS011;31567;54.600;9.842;2023-12-22T06:39:46;3.83;;;1.10;;
45848;SDS011;31567;54.600;9.842;2023-12-22T06:43:25;6.53;;;0.98;;
45848;SDS011;31567;54.600;9.842;2023-12-22T06:47:05;6.20;;;0.80;;
45848;SDS011;31567;54.600;9.842;2023-12-22T06:50:45;4.40;;;0.85;;
45848;SDS011;31567;54.600;9.842;2023-12-22T06:54:25;4.13;;;0.98;;
45848;SDS011;31567;54.600;9.842;2023-12-22T06:58:04;5.35;;;0.88;;
45848;SDS011;31567;54.600;9.842;2023-12-22T07:01:44;5.47;;;1.52;;
45848;SDS011;31567;54.600;9.842;2023-12-22T07:12:55;3.60;;;0.57;;
45848;SDS011;31567;54.600;9.842;2023-12-22T07:16:34;7.28;;;1.25;;
45848;SDS011;31567;54.600;9.842;2023-12-22T07:20:15;3.22;;;0.70;;
45848;SDS011;31567;54.600;9.842;2023-12-22T07:23:54;4.80;;;1.00;;
45848;SDS011;31567;54.600;9.842;2023-12-22T07:27:34;5.95;;;1.02;;
45848;SDS011;31567;54.600;9.842;2023-12-22T07:31:14;7.05;;;1.27;;
45848;SDS011;31567;54.600;9.842;2023-12-22T07:34:53;8.07;;;1.20;;
45848;SDS011;31567;54.600;9.842;2023-12-22T07:38:34;11.23;;;2.35;;
45848;SDS011;31567;54.600;9.842;2023-12-22T07:42:13;9.88;;;2.80;;
45848;SDS011;31567;54.600;9.842;2023-12-22T07:45:53;9.98;;;1.58;;
45848;SDS011;31567;54.600;9.842;2023-12-22T07:49:32;10.82;;;1.67;;
45848;SDS011;31567;54.600;9.842;2023-12-22T07:53:12;9.77;;;1.27;;
45848;SDS011;31567;54.600;9.842;2023-12-22T07:56:51;13.80;;;2.42;;
45848;SDS011;31567;54.600;9.842;2023-12-22T08:00:31;14.55;;;2.03;;
45848;SDS011;31567;54.600;9.842;2023-12-22T08:04:11;11.25;;;2.15;;
45848;SDS011;31567;54.600;9.842;2023-12-22T08:07:50;14.30;;;2.20;;
45848;SDS011;31567;54.600;9.842;2023-12-22T08:11:30;11.45;;;2.05;;
45848;SDS011;31567;54.600;9.842;2023-12-22T08:15:09;10.27;;;1.80;;
45848;SDS011;31567;54.600;9.842;2023-12-22T08:18:52;11.70;;;2.47;;
45848;SDS011;31567;54.600;9.842;2023-12-22T08:22:31;7.60;;;1.50;;
45848;SDS011;31567;54.600;9.842;2023-12-22T08:26:11;6.57;;;1.20;;
45848;SDS011;31567;54.600;9.842;2023-12-22T08:29:51;8.30;;;1.52;;
45848;SDS011;31567;54.600;9.842;2023-12-22T08:33:30;11.55;;;2.40;;
45848;SDS011;31567;54.600;9.842;2023-12-22T08:37:10;9.30;;;1.60;;
45848;SDS011;31567;54.600;9.842;2023-12-22T08:40:50;8.82;;;1.98;;
45848;SDS011;31567;54.600;9.842;2023-12-22T08:44:29;10.23;;;1.80;;
45848;SDS011;31567;54.600;9.842;2023-12-22T08:48:09;12.52;;;1.38;;
45848;SDS011;31567;54.600;9.842;2023-12-22T08:51:49;10.30;;;1.90;;
45848;SDS011;31567;54.600;9.842;2023-12-22T08:55:29;12.82;;;1.33;;
45848;SDS011;31567;54.600;9.842;2023-12-22T08:59:09;10.40;;;1.23;;
45848;SDS011;31567;54.600;9.842;2023-12-22T09:02:49;14.68;;;1.65;;
45848;SDS011;31567;54.600;9.842;2023-12-22T09:06:28;6.38;;;1.75;;
45848;SDS011;31567;54.600;9.842;2023-12-22T09:10:08;7.05;;;1.30;;
45848;SDS011;31567;54.600;9.842;2023-12-22T09:13:47;10.07;;;1.70;;
45848;SDS011;31567;54.600;9.842;2023-12-22T09:17:27;6.20;;;1.13;;
45848;SDS011;31567;54.600;9.842;2023-12-22T09:21:07;9.65;;;2.15;;
45848;SDS011;31567;54.600;9.842;2023-12-22T09:24:47;7.07;;;0.88;;
45848;SDS011;31567;54.600;9.842;2023-12-22T09:28:27;5.47;;;0.70;;
45848;SDS011;31567;54.600;9.842;2023-12-22T09:32:07;6.60;;;1.08;;
45848;SDS011;31567;54.600;9.842;2023-12-22T09:35:47;7.07;;;1.75;;
45848;SDS011;31567;54.600;9.842;2023-12-22T09:39:26;12.68;;;1.17;;
45848;SDS011;31567;54.600;9.842;2023-12-22T09:43:08;7.30;;;1.15;;
45848;SDS011;31567;54.600;9.842;2023-12-22T09:46:48;9.27;;;1.27;;
45848;SDS011;31567;54.600;9.842;2023-12-22T09:50:29;8.27;;;1.48;;
45848;SDS011;31567;54.600;9.842;2023-12-22T09:54:09;7.57;;;1.52;;
45848;SDS011;31567;54.600;9.842;2023-12-22T09:57:50;4.53;;;1.15;;
45848;SDS011;31567;54.600;9.842;2023-12-22T10:01:31;8.35;;;1.70;;
45848;SDS011;31567;54.600;9.842;2023-12-22T10:05:12;6.45;;;1.33;;
45848;SDS011;31567;54.600;9.842;2023-12-22T10:08:52;6.90;;;1.15;;
45848;SDS011;31567;54.600;9.842;2023-12-22T10:12:33;4.50;;;0.60;;
45848;SDS011;31567;54.600;9.842;2023-12-22T10:16:13;4.68;;;0.73;;
45848;SDS011;31567;54.600;9.842;2023-12-22T10:19:53;6.95;;;1.05;;
45848;SDS011;31567;54.600;9.842;2023-12-22T10:23:33;7.78;;;1.88;;
45848;SDS011;31567;54.600;9.842;2023-12-22T10:27:12;10.07;;;2.38;;
45848;SDS011;31567;54.600;9.842;2023-12-22T10:30:53;10.32;;;1.30;;
45848;SDS011;31567;54.600;9.842;2023-12-22T10:34:35;6.13;;;1.17;;
45848;SDS011;31567;54.600;9.842;2023-12-22T10:38:14;5.68;;;1.20;;
45848;SDS011;31567;54.600;9.842;2023-12-22T10:41:56;7.78;;;1.00;;
45848;SDS011;31567;54.600;9.842;2023-12-22T10:45:37;6.78;;;1.50;;
45848;SDS011;31567;54.600;9.842;2023-12-22T10:49:16;4.82;;;1.00;;
45848;SDS011;31567;54.600;9.842;2023-12-22T10:52:56;10.98;;;1.48;;
45848;SDS011;31567;54.600;9.842;2023-12-22T10:56:36;6.05;;;1.63;;
45848;SDS011;31567;54.600;9.842;2023-12-22T11:00:15;5.38;;;1.30;;
45848;SDS011;31567;54.600;9.842;2023-12-22T11:04:01;4.75;;;1.10;;
45848;SDS011;31567;54.600;9.842;2023-12-22T11:07:42;6.38;;;1.20;;
45848;SDS011;31567;54.600;9.842;2023-12-22T11:11:28;8.75;;;1.15;;
45848;SDS011;31567;54.600;9.842;2023-12-22T11:15:10;7.20;;;1.17;;
45848;SDS011;31567;54.600;9.842;2023-12-22T11:18:52;5.45;;;1.00;;
45848;SDS011;31567;54.600;9.842;2023-12-22T11:22:34;12.48;;;1.73;;
45848;SDS011;31567;54.600;9.842;2023-12-22T11:26:16;6.78;;;1.48;;
45848;SDS011;31567;54.600;9.842;2023-12-22T11:29:56;5.50;;;1.10;;
45848;SDS011;31567;54.600;9.842;2023-12-22T11:33:37;15.23;;;3.22;;
45848;SDS011;31567;54.600;9.842;2023-12-22T11:37:19;6.60;;;1.20;;
45848;SDS011;31567;54.600;9.842;2023-12-22T11:40:58;9.80;;;1.33;;
45848;SDS011;31567;54.600;9.842;2023-12-22T11:44:40;10.65;;;1.73;;
45848;SDS011;31567;54.600;9.842;2023-12-22T11:48:19;9.57;;;1.63;;
45848;SDS011;31567;54.600;9.842;2023-12-22T11:52:13;10.52;;;1.73;;
45848;SDS011;31567;54.600;9.842;2023-12-22T11:59:44;10.57;;;1.40;;
45848;SDS011;31567;54.600;9.842;2023-12-22T12:03:23;13.13;;;2.05;;
45848;SDS011;31567;54.600;9.842;2023-12-22T12:07:36;9.68;;;2.40;;
45848;SDS011;31567;54.600;9.842;2023-12-22T12:12:08;8.55;;;1.58;;
45848;SDS011;31567;54.600;9.842;2023-12-22T12:15:41;7.93;;;1.67;;
45848;SDS011;31567;54.600;9.842;2023-12-22T12:19:21;6.03;;;1.20;;
45848;SDS011;31567;54.600;9.842;2023-12-22T12:23:01;10.23;;;1.25;;
45848;SDS011;31567;54.600;9.842;2023-12-22T12:26:41;4.40;;;0.68;;
45848;SDS011;31567;54.600;9.842;2023-12-22T12:30:21;4.40;;;0.40;;
45848;SDS011;31567;54.600;9.842;2023-12-22T12:34:02;6.03;;;0.77;;
45848;SDS011;31567;54.600;9.842;2023-12-22T12:37:44;4.35;;;0.50;;
45848;SDS011;31567;54.600;9.842;2023-12-22T12:41:31;3.00;;;1.13;;
45848;SDS011;31567;54.600;9.842;2023-12-22T12:45:11;5.50;;;0.57;;
45848;SDS011;31567;54.600;9.842;2023-12-22T12:49:02;9.52;;;0.80;;
45848;SDS011;31567;54.600;9.842;2023-12-22T12:52:43;8.07;;;1.00;;
45848;SDS011;31567;54.600;9.842;2023-12-22T12:56:22;1.85;;;0.70;;
45848;SDS011;31567;54.600;9.842;2023-12-22T13:00:02;4.68;;;0.90;;
45848;SDS011;31567;54.600;9.842;2023-12-22T13:03:51;4.22;;;0.90;;
45848;SDS011;31567;54.600;9.842;2023-12-22T13:07:32;4.07;;;0.55;;
45848;SDS011;31567;54.600;9.842;2023-12-22T13:11:12;1.80;;;0.52;;
45848;SDS011;31567;54.600;9.842;2023-12-22T13:14:51;8.52;;;1.70;;
45848;SDS011;31567;54.600;9.842;2023-12-22T13:18:31;6.38;;;0.70;;
45848;SDS011;31567;54.600;9.842;2023-12-22T13:22:10;9.40;;;0.80;;
45848;SDS011;31567;54.600;9.842;2023-12-22T13:25:50;3.78;;;0.90;;
45848;SDS011;31567;54.600;9.842;2023-12-22T13:29:30;4.70;;;0.70;;
45848;SDS011;31567;54.600;9.842;2023-12-22T13:33:21;6.13;;;0.82;;
45848;SDS011;31567;54.600;9.842;2023-12-22T13:37:03;5.30;;;0.70;;
45848;SDS011;31567;54.600;9.842;2023-12-22T13:40:44;3.28;;;0.80;;
45848;SDS011;31567;54.600;9.842;2023-12-22T13:44:27;3.47;;;0.60;;
45848;SDS011;31567;54.600;9.842;2023-12-22T13:48:06;3.25;;;0.45;;
45848;SDS011;31567;54.600;9.842;2023-12-22T13:51:46;7.68;;;1.00;;
45848;SDS011;31567;54.600;9.842;2023-12-22T13:55:26;5.22;;;0.60;;
45848;SDS011;31567;54.600;9.842;2023-12-22T13:59:06;7.28;;;1.15;;
45848;SDS011;31567;54.600;9.842;2023-12-22T14:02:46;4.95;;;1.10;;
45848;SDS011;31567;54.600;9.842;2023-12-22T14:06:28;4.13;;;0.60;;
45848;SDS011;31567;54.600;9.842;2023-12-22T14:10:08;10.93;;;1.02;;
45848;SDS011;31567;54.600;9.842;2023-12-22T14:13:49;4.25;;;0.85;;
45848;SDS011;31567;54.600;9.842;2023-12-22T14:17:28;2.40;;;0.60;;
45848;SDS011;31567;54.600;9.842;2023-12-22T14:21:08;5.55;;;0.90;;
45848;SDS011;31567;54.600;9.842;2023-12-22T14:24:47;6.63;;;1.10;;
45848;SDS011;31567;54.600;9.842;2023-12-22T14:28:27;15.30;;;3.75;;
45848;SDS011;31567;54.600;9.842;2023-12-22T14:32:06;4.63;;;1.10;;
45848;SDS011;31567;54.600;9.842;2023-12-22T14:35:53;7.40;;;0.80;;
45848;SDS011;31567;54.600;9.842;2023-12-22T14:39:33;6.88;;;1.00;;
45848;SDS011;31567;54.600;9.842;2023-12-22T14:43:14;4.53;;;0.80;;
45848;SDS011;31567;54.600;9.842;2023-12-22T14:46:53;6.50;;;1.15;;
45848;SDS011;31567;54.600;9.842;2023-12-22T14:50:33;5.70;;;0.80;;
45848;SDS011;31567;54.600;9.842;2023-12-22T14:54:12;7.20;;;0.73;;
45848;SDS011;31567;54.600;9.842;2023-12-22T14:57:52;7.18;;;1.27;;
45848;SDS011;31567;54.600;9.842;2023-12-22T15:01:32;4.25;;;1.00;;
45848;SDS011;31567;54.600;9.842;2023-12-22T15:05:12;7.40;;;1.15;;
45848;SDS011;31567;54.600;9.842;2023-12-22T15:08:51;10.85;;;1.48;;
45848;SDS011;31567;54.600;9.842;2023-12-22T15:12:32;16.73;;;2.95;;
45848;SDS011;31567;54.600;9.842;2023-12-22T15:16:15;7.70;;;1.13;;
45848;SDS011;31567;54.600;9.842;2023-12-22T15:19:54;7.80;;;1.08;;
45848;SDS011;31567;54.600;9.842;2023-12-22T15:23:34;8.65;;;1.48;;
45848;SDS011;31567;54.600;9.842;2023-12-22T15:27:13;5.38;;;0.70;;
45848;SDS011;31567;54.600;9.842;2023-12-22T15:30:53;6.00;;;1.05;;
45848;SDS011;31567;54.600;9.842;2023-12-22T15:34:32;8.32;;;1.58;;
45848;SDS011;31567;54.600;9.842;2023-12-22T15:38:13;5.88;;;1.00;;
45848;SDS011;31567;54.600;9.842;2023-12-22T15:41:53;5.82;;;0.80;;
45848;SDS011;31567;54.600;9.842;2023-12-22T15:45:33;7.60;;;1.10;;
45848;SDS011;31567;54.600;9.842;2023-12-22T15:49:12;4.78;;;1.20;;
45848;SDS011;31567;54.600;9.842;2023-12-22T15:52:52;6.38;;;1.38;;
45848;SDS011;31567;54.600;9.842;2023-12-22T15:56:31;5.70;;;0.80;;
45848;SDS011;31567;54.600;9.842;2023-12-22T16:00:11;7.45;;;1.05;;
45848;SDS011;31567;54.600;9.842;2023-12-22T16:03:51;6.28;;;0.68;;
45848;SDS011;31567;54.600;9.842;2023-12-22T16:07:30;7.53;;;1.50;;
45848;SDS011;31567;54.600;9.842;2023-12-22T16:11:10;6.53;;;1.00;;
45848;SDS011;31567;54.600;9.842;2023-12-22T16:14:50;10.88;;;1.73;;
45848;SDS011;31567;54.600;9.842;2023-12-22T16:18:33;7.25;;;1.00;;
45848;SDS011;31567;54.600;9.842;2023-12-22T16:22:12;6.40;;;1.17;;
45848;SDS011;31567;54.600;9.842;2023-12-22T16:25:52;6.57;;;1.05;;
45848;SDS011;31567;54.600;9.842;2023-12-22T16:29:38;11.82;;;3.55;;
45848;SDS011;31567;54.600;9.842;2023-12-22T16:33:18;8.45;;;0.80;;
45848;SDS011;31567;54.600;9.842;2023-12-22T16:37:00;6.05;;;0.88;;
45848;SDS011;31567;54.600;9.842;2023-12-22T16:40:39;4.30;;;0.82;;
45848;SDS011;31567;54.600;9.842;2023-12-22T16:44:20;5.38;;;0.57;;
45848;SDS011;31567;54.600;9.842;2023-12-22T16:48:01;7.60;;;0.98;;
45848;SDS011;31567;54.600;9.842;2023-12-22T16:51:41;7.70;;;1.33;;
45848;SDS011;31567;54.600;9.842;2023-12-22T16:55:21;10.77;;;1.30;;
45848;SDS011;31567;54.600;9.842;2023-12-22T16:59:00;4.13;;;0.73;;
45848;SDS011;31567;54.600;9.842;2023-12-22T17:02:40;7.72;;;1.02;;
45848;SDS011;31567;54.600;9.842;2023-12-22T17:06:20;6.60;;;0.90;;
45848;SDS011;31567;54.600;9.842;2023-12-22T17:09:59;3.05;;;0.63;;
45848;SDS011;31567;54.600;9.842;2023-12-22T17:13:39;8.05;;;1.52;;
45848;SDS011;31567;54.600;9.842;2023-12-22T17:17:18;8.60;;;0.90;;
45848;SDS011;31567;54.600;9.842;2023-12-22T17:20:58;6.88;;;0.90;;
45848;SDS011;31567;54.600;9.842;2023-12-22T17:24:38;2.80;;;0.52;;
45848;SDS011;31567;54.600;9.842;2023-12-22T17:28:21;7.30;;;0.70;;
45848;SDS011;31567;54.600;9.842;2023-12-22T17:32:01;6.20;;;0.68;;
45848;SDS011;31567;54.600;9.842;2023-12-22T17:35:45;9.52;;;1.02;;
45848;SDS011;31567;54.600;9.842;2023-12-22T17:39:25;7.60;;;1.15;;
45848;SDS011;31567;54.600;9.842;2023-12-22T17:43:05;4.22;;;0.70;;
45848;SDS011;31567;54.600;9.842;2023-12-22T17:46:45;6.30;;;1.02;;
45848;SDS011;31567;54.600;9.842;2023-12-22T17:50:24;4.20;;;0.65;;
45848;SDS011;31567;54.600;9.842;2023-12-22T17:54:04;4.55;;;0.85;;
45848;SDS011;31567;54.600;9.842;2023-12-22T17:57:43;7.13;;;0.80;;
45848;SDS011;31567;54.600;9.842;2023-12-22T18:01:23;3.72;;;0.50;;
45848;SDS011;31567;54.600;9.842;2023-12-22T18:05:03;2.90;;;0.65;;
45848;SDS011;31567;54.600;9.842;2023-12-22T18:08:42;2.80;;;0.60;;
45848;SDS011;31567;54.600;9.842;2023-12-22T18:12:22;1.50;;;0.50;;
45848;SDS011;31567;54.600;9.842;2023-12-22T18:16:02;3.55;;;0.60;;
45848;SDS011;31567;54.600;9.842;2023-12-22T18:19:41;6.68;;;0.65;;
45848;SDS011;31567;54.600;9.842;2023-12-22T18:23:21;1.88;;;0.30;;
45848;SDS011;31567;54.600;9.842;2023-12-22T18:27:01;3.13;;;0.40;;
45848;SDS011;31567;54.600;9.842;2023-12-22T18:30:41;4.10;;;0.88;;
45848;SDS011;31567;54.600;9.842;2023-12-22T18:34:21;1.38;;;0.40;;
45848;SDS011;31567;54.600;9.842;2023-12-22T18:38:01;1.27;;;0.40;;
45848;SDS011;31567;54.600;9.842;2023-12-22T18:41:40;1.95;;;0.45;;
45848;SDS011;31567;54.600;9.842;2023-12-22T18:45:20;1.67;;;0.30;;
45848;SDS011;31567;54.600;9.842;2023-12-22T18:48:59;1.52;;;0.25;;
45848;SDS011;31567;54.600;9.842;2023-12-22T18:52:39;9.07;;;2.22;;
45848;SDS011;31567;54.600;9.842;2023-12-22T18:56:22;1.25;;;0.50;;
45848;SDS011;31567;54.600;9.842;2023-12-22T19:00:04;1.33;;;0.30;;
45848;SDS011;31567;54.600;9.842;2023-12-22T19:03:44;3.53;;;0.55;;
45848;SDS011;31567;54.600;9.842;2023-12-22T19:07:24;0.98;;;0.50;;
45848;SDS011;31567;54.600;9.842;2023-12-22T19:11:04;3.55;;;0.52;;
45848;SDS011;31567;54.600;9.842;2023-12-22T19:14:43;2.25;;;0.57;;
45848;SDS011;31567;54.600;9.842;2023-12-22T19:18:23;6.40;;;0.60;;
45848;SDS011;31567;54.600;9.842;2023-12-22T19:22:03;1.75;;;0.25;;
45848;SDS011;31567;54.600;9.842;2023-12-22T19:25:43;0.30;;;0.30;;
45848;SDS011;31567;54.600;9.842;2023-12-22T19:29:23;1.25;;;0.43;;
45848;SDS011;31567;54.600;9.842;2023-12-22T19:33:03;2.17;;;0.30;;
45848;SDS011;31567;54.600;9.842;2023-12-22T19:36:43;0.82;;;0.82;;
45848;SDS011;31567;54.600;9.842;2023-12-22T19:40:22;0.68;;;0.40;;
45848;SDS011;31567;54.600;9.842;2023-12-22T19:44:02;2.83;;;0.60;;
45848;SDS011;31567;54.600;9.842;2023-12-22T19:47:42;1.13;;;0.57;;
45848;SDS011;31567;54.600;9.842;2023-12-22T19:51:22;1.42;;;0.80;;
45848;SDS011;31567;54.600;9.842;2023-12-22T19:55:01;2.03;;;0.80;;
45848;SDS011;31567;54.600;9.842;2023-12-22T19:58:41;3.83;;;0.40;;
45848;SDS011;31567;54.600;9.842;2023-12-22T20:02:21;1.58;;;0.40;;
45848;SDS011;31567;54.600;9.842;2023-12-22T20:06:01;1.60;;;0.50;;
45848;SDS011;31567;54.600;9.842;2023-12-22T20:09:43;2.30;;;0.60;;
45848;SDS011;31567;54.600;9.842;2023-12-22T20:13:22;9.27;;;3.95;;
45848;SDS011;31567;54.600;9.842;2023-12-22T20:17:02;2.55;;;1.42;;
45848;SDS011;31567;54.600;9.842;2023-12-22T20:20:45;3.90;;;0.60;;
45848;SDS011;31567;54.600;9.842;2023-12-22T20:24:26;3.45;;;0.50;;
45848;SDS011;31567;54.600;9.842;2023-12-22T20:28:06;3.13;;;0.45;;
45848;SDS011;31567;54.600;9.842;2023-12-22T20:31:45;2.25;;;0.70;;
45848;SDS011;31567;54.600;9.842;2023-12-22T20:35:25;2.53;;;0.38;;
45848;SDS011;31567;54.600;9.842;2023-12-22T20:39:04;1.73;;;0.50;;
45848;SDS011;31567;54.600;9.842;2023-12-22T20:42:45;0.68;;;0.52;;
45848;SDS011;31567;54.600;9.842;2023-12-22T20:46:24;2.22;;;0.75;;
45848;SDS011;31567;54.600;9.842;2023-12-22T20:50:04;3.05;;;0.82;;
45848;SDS011;31567;54.600;9.842;2023-12-22T20:53:44;1.15;;;0.70;;
45848;SDS011;31567;54.600;9.842;2023-12-22T20:57:24;2.08;;;0.80;;
45848;SDS011;31567;54.600;9.842;2023-12-22T21:01:03;0.95;;;0.82;;
45848;SDS011;31567;54.600;9.842;2023-12-22T21:04:48;1.98;;;1.00;;
45848;SDS011;31567;54.600;9.842;2023-12-22T21:08:29;2.15;;;0.70;;
45848;SDS011;31567;54.600;9.842;2023-12-22T21:12:09;0.40;;;0.40;;
45848;SDS011;31567;54.600;9.842;2023-12-22T21:15:50;1.02;;;0.43;;
45848;SDS011;31567;54.600;9.842;2023-12-22T21:19:29;1.38;;;0.20;;
45848;SDS011;31567;54.600;9.842;2023-12-22T21:23:09;0.55;;;0.28;;
45848;SDS011;31567;54.600;9.842;2023-12-22T21:26:48;0.20;;;0.20;;
45848;SDS011;31567;54.600;9.842;2023-12-22T21:30:28;0.93;;;0.30;;
45848;SDS011;31567;54.600;9.842;2023-12-22T21:34:08;1.55;;;0.30;;
45848;SDS011;31567;54.600;9.842;2023-12-22T21:37:48;0.13;;;0.13;;
45848;SDS011;31567;54.600;9.842;2023-12-22T21:41:28;1.27;;;0.30;;
45848;SDS011;31567;54.600;9.842;2023-12-22T21:45:08;2.30;;;0.40;;
45848;SDS011;31567;54.600;9.842;2023-12-22T21:48:47;0.50;;;0.38;;
45848;SDS011;31567;54.600;9.842;2023-12-22T21:52:27;1.38;;;0.30;;
45848;SDS011;31567;54.600;9.842;2023-12-22T21:56:07;1.02;;;0.13;;
45848;SDS011;31567;54.600;9.842;2023-12-22T21:59:46;0.15;;;0.10;;
45848;SDS011;31567;54.600;9.842;2023-12-22T22:03:26;1.42;;;0.28;;
45848;SDS011;31567;54.600;9.842;2023-12-22T22:07:06;0.55;;;0.20;;
45848;SDS011;31567;54.600;9.842;2023-12-22T22:10:46;1.45;;;0.25;;
45848;SDS011;31567;54.600;9.842;2023-12-22T22:14:26;1.27;;;0.30;;
45848;SDS011;31567;54.600;9.842;2023-12-22T22:18:06;0.57;;;0.20;;